Time;durP1;ratioP1;P1;durP2;ratioP2;P2;SDS_P1;SDS_P2;PMS_P1;PMS_P2;Temp;Humidity;BMP_temperature;BMP_pressure;BME280_temperature;BME280_humidity;BME280_pressure;Samples;Min_cycle;Max_cycle;Signal;HPM_P1;HPM_P2
2023/10/10 00:03:23;;;;;;;;;;;;;;;;;;2;576161248;576161248;-31
2023/10/10 00:12:30;;;;;;;;;;;;;;;;;;3140;310;540151307;-32
2023/10/10 00:22:47;;;;;;;;;;;;;;;;;;1893;314;612171301;-35
2023/10/10 00:32:28;;;;;;;;;;;;;;;;;;1405;1317;576162362;-32
2023/10/10 00:41:31;;;;;;;;;;;;;;;;;;1768;311;540154142;-31
2023/10/10 00:51:48;;;;;;;;;;;;;;;;;;3551;309;612171871;-31
2023/10/10 01:01:29;;;;;;;;;;;;;;;;;;3564;309;576162888;-35
2023/10/10 01:10:43;;;;;;;;;;;;;;;;;;3396;309;540152850;-32
2023/10/10 01:20:56;;;;;;;;;;;;;;;;;;2;612171013;612171013;-30
2023/10/10 01:39:49;;;;;;;;;;;;;;;;;;2;540148930;540148930;-32
2023/10/10 01:50:12;;;;;;;;;;;;;;;;;;3566;309;612170223;-32
2023/10/10 02:49:22;;;;;;;;;;;;;;;;;;2;540153258;540153258;-32
2023/10/10 02:59:31;;;;;;;;;;;;;;;;;;2;603167724;603167724;-31
2023/10/10 03:09:38;;;;;;;;;;;;;;;;;;2;576160579;576160579;-34
2023/10/10 03:18:29;;;;;;;;;;;;;;;;;;2;540150819;540150819;-32
2023/10/10 03:28:47;;;;;;;;;;;;;;;;;;2629;308;603165785;-34
2023/10/10 03:38:44;;;;;;;;;;;;;;;;;;2;576160434;576160434;-34
2023/10/10 05:26:13;;;;;;;;;;;;;;;;;;2;612173370;612173370;-35
2023/10/10 05:35:54;;;;;;;;;;;;;;;;;;3413;308;576161422;-30
2023/10/10 05:45:06;;;;;;;;;;;;;;;;;;1985;308;540150064;-35
2023/10/10 05:55:18;;;;;;;;;;;;;;;;;;2;612170207;612170207;-35
2023/10/10 06:04:59;;;;;;;;;;;;;;;;;;3491;308;576163957;-36
2023/10/10 06:14:04;;;;;;;;;;;;;;;;;;3552;308;540153513;-32
2023/10/10 06:24:22;;;;;;;;;;;;;;;;;;3539;308;612170997;-36
2023/10/10 06:34:19;;;;;;;;;;;;;;;;;;2815;308;576163532;-36
2023/10/10 06:43:19;;;;;;;;;;;;;;;;;;2;540147428;540147428;-36
2023/10/10 06:53:36;;;;;;;;;;;;;;;;;;3565;308;612175285;-32
2023/10/10 07:03:30;;;;;;;;;;;;;;;;;;3555;308;576161340;-33
2023/10/10 07:12:31;;;;;;;;;;;;;;;;;;2;540149358;540149358;-36
2023/10/10 07:22:47;;;;;;;;;;;;;;;;;;2732;308;612172592;-35
2023/10/10 07:32:29;;;;;;;;;;;;;;;;;;3531;310;576163646;-35
2023/10/10 07:41:35;;;;;;;;;;;;;;;;;;3231;308;540152713;-35
2023/10/10 07:51:51;;;;;;;;;;;;;;;;;;2285;308;612168784;-32
2023/10/10 08:01:32;;;;;;;;;;;;;;;;;;3557;308;576161517;-33
2023/10/10 08:10:43;;;;;;;;;;;;;;;;;;3369;308;540150589;-33
2023/10/10 08:30:48;;;;;;;;;;;;;;;;;;2;576160055;576160055;-36
2023/10/10 08:39:55;;;;;;;;;;;;;;;;;;3072;308;540151947;-33
2023/10/10 08:50:10;;;;;;;;;;;;;;;;;;1972;308;612174591;-36
2023/10/10 08:59:52;;;;;;;;;;;;;;;;;;3557;308;576160974;-36
2023/10/10 09:09:00;;;;;;;;;;;;;;;;;;2845;308;540153712;-35
2023/10/10 09:19:14;;;;;;;;;;;;;;;;;;852;308;612175072;-32
2023/10/10 09:28:59;;;;;;;;;;;;;;;;;;2975;308;576159434;-31
2023/10/10 09:38:00;;;;;;;;;;;;;;;;;;2;540151888;540151888;-35
2023/10/10 09:48:28;;;;;;;;;;;;;;;;;;3271;308;612171334;-34
2023/10/10 10:07:23;;;;;;;;;;;;;;;;;;2;540151563;540151563;-31
2023/10/10 10:27:35;;;;;;;;;;;;;;;;;;2;576159031;576159031;-31
2023/10/10 10:36:40;;;;;;;;;;;;;;;;;;2;540148798;540148798;-31
2023/10/10 10:46:56;;;;;;;;;;;;;;;;;;2;612169356;612169356;-34
2023/10/10 10:56:38;;;;;;;;;;;;;;;;;;1032;308;576162880;-35
2023/10/10 11:05:39;;;;;;;;;;;;;;;;;;585;308;540151792;-32
2023/10/10 11:16:10;;;;;;;;;;;;;;;;;;3562;308;612169056;-32
2023/10/10 11:25:58;;;;;;;;;;;;;;;;;;2;576161265;576161265;-34
2023/10/10 11:35:17;;;;;;;;;;;;;;;;;;2;540148424;540148424;-35
2023/10/10 11:45:30;;;;;;;;;;;;;;;;;;2;612167924;612167924;-35
2023/10/10 11:55:10;;;;;;;;;;;;;;;;;;3281;308;576160195;-31
2023/10/10 12:14:42;;;;;;;;;;;;;;;;;;2;612169621;612169621;-31
2023/10/10 12:24:21;;;;;;;;;;;;;;;;;;1840;308;576166551;-35
2023/10/10 12:33:27;;;;;;;;;;;;;;;;;;3561;308;540151647;-32
2023/10/10 12:43:43;;;;;;;;;;;;;;;;;;2844;308;612170214;-33
2023/10/10 12:53:30;;;;;;;;;;;;;;;;;;3415;308;576161783;-33
2023/10/10 13:02:30;;;;;;;;;;;;;;;;;;2;540153270;540153270;-33
2023/10/10 13:57:02;;;;;;;26.80;13.00;;;;;;;;;;102930;1284;631935;-53
2023/10/10 13:59:27;;;;;;;27.40;14.00;;;;;;;;;;103193;1287;60195;-54
2023/10/10 14:01:54;;;;;;;23.80;11.70;;;;;;;;;;103206;1289;60224;-49
2023/10/10 14:04:27;;;;;;;24.60;11.60;;;;;;;;;;103280;1288;60256;-47
2023/10/10 14:06:54;;;;;;;29.10;11.40;;;;;;;;;;107257;1286;59390;-47
2023/10/10 14:09:22;;;;;;;27.30;10.80;;;;;;;;;;106260;1286;139736;-49
2023/10/10 14:11:51;;;;;;;18.50;10.00;;;;;;;;;;103571;1283;60553;-49
2023/10/10 14:14:17;;;;;;;20.40;10.50;;;;;;;;;;103683;1285;60136;-40
2023/10/10 14:16:42;;;;;;;20.50;10.10;;;;;;;;;;103680;1286;60293;-48
2023/10/10 14:19:07;;;;;;;16.40;9.10;;;;;;;;;;103695;1283;60070;-49
2023/10/10 14:21:33;;;;;;;20.70;9.10;;;;;;;;;;103811;1287;60811;-50
2023/10/10 14:24:08;;;;;;;21.80;9.60;;;;;;;;;;103785;1286;60888;-48
2023/10/10 14:26:36;;;;;;;17.90;9.30;;;;;;;;;;103800;1285;60828;-51
2023/10/10 14:29:05;;;;;;;18.00;8.90;;;;;;;;;;103692;1288;60883;-47
2023/10/10 14:31:31;;;;;;;19.30;9.50;;;;;;;;;;103601;1283;60806;-50
2023/10/10 14:33:59;;;;;;;15.90;9.40;;;;;;;;;;103898;1283;60770;-50
2023/10/10 14:36:26;;;;;;;17.60;9.90;;;;;;;;;;103979;1289;61471;-51
2023/10/10 14:38:52;;;;;;;16.70;9.00;;;;;;;;;;103720;1287;60853;-50
2023/10/10 14:41:17;;;;;;;;;;;;;;;;;;103796;1286;60893;-47
2023/10/10 14:43:47;;;;;;;11.80;8.40;;;;;;;;;;103802;1286;60896;-49
2023/10/10 14:46:14;;;;;;;11.60;8.30;;;;;;;;;;103785;1288;60769;-47
2023/10/10 14:48:39;;;;;;;13.70;7.60;;;;;;;;;;103813;1283;61216;-47
2023/10/10 14:51:05;;;;;;;14.00;8.90;;;;;;;;;;103715;1287;60882;-49
2023/10/10 14:53:34;;;;;;;13.60;8.20;;;;;;;;;;103824;1285;60744;-47
2023/10/10 14:56:05;;;;;;;14.90;8.60;;;;;;;;;;103701;1287;61003;-49
2023/10/10 14:58:30;;;;;;;12.60;8.30;;;;;;;;;;103747;1282;61421;-47
2023/10/10 15:00:56;;;;;;;14.00;7.90;;;;;;;;;;103640;1283;60811;-47
2023/10/10 15:03:25;;;;;;;13.70;8.60;;;;;;;;;;103852;1283;60856;-47
2023/10/10 15:05:50;;;;;;;12.30;8.00;;;;;;;;;;103775;1288;60872;-47
2023/10/10 15:08:19;;;;;;;10.20;7.80;;;;;;;;;;103756;1285;60892;-50
2023/10/10 15:10:51;;;;;;;10.40;7.40;;;;;;;;;;103763;1285;60851;-49
2023/10/10 15:13:17;;;;;;;10.60;7.80;;;;;;;;;;103801;1286;60822;-48
2023/10/10 15:15:45;;;;;;;12.30;7.50;;;;;;;;;;103622;1285;60771;-48
2023/10/10 15:18:11;;;;;;;9.40;7.70;;;;;;;;;;103640;1283;61279;-47
2023/10/10 15:20:36;;;;;;;10.00;7.40;;;;;;;;;;103786;1287;60671;-47
2023/10/10 15:23:02;;;;;;;13.10;7.30;;;;;;;;;;103701;1286;61085;-47
2023/10/10 15:25:27;;;;;;;9.60;7.40;;;;;;;;;;103746;1283;60837;-39
2023/10/10 15:27:54;;;;;;;9.80;7.20;;;;;;;;;;103692;1284;60876;-39
2023/10/10 15:30:20;;;;;;;12.40;7.80;;;;;;;;;;103695;1282;60809;-38
2023/10/10 15:32:46;;;;;;;10.50;7.70;;;;;;;;;;103709;1282;60892;-38
2023/10/10 15:35:12;;;;;;;9.10;7.10;;;;;;;;;;103715;1286;60761;-38
2023/10/10 15:37:44;;;;;;;9.80;7.10;;;;;;;;;;103940;1283;60895;-38
2023/10/10 15:40:13;;;;;;;9.90;7.40;;;;;;;;;;103760;1283;60837;-38
2023/10/10 15:42:39;;;;;;;8.70;6.80;;;;;;;;;;103944;1282;60815;-39
2023/10/10 15:45:05;;;;;;;8.00;6.90;;;;;;;;;;103768;1283;61468;-38
2023/10/10 15:47:31;;;;;;;9.90;7.10;;;;;;;;;;103829;1285;60828;-39
2023/10/10 15:50:00;;;;;;;10.70;6.60;;;;;;;;;;103589;1288;60997;-49
2023/10/10 15:52:25;;;;;;;10.90;7.20;;;;;;;;;;103822;1282;60783;-48
2023/10/10 15:54:51;;;;;;;8.90;6.80;;;;;;;;;;103655;1285;61061;-48
2023/10/10 15:57:17;;;;;;;10.40;7.20;;;;;;;;;;103670;1286;61227;-49
2023/10/10 15:59:44;;;;;;;8.80;6.90;;;;;;;;;;103778;1287;61004;-37
2023/10/10 16:02:13;;;;;;;8.40;6.80;;;;;;;;;;103834;1283;60863;-38
2023/10/10 16:04:42;;;;;;;8.50;6.30;;;;;;;;;;103803;1282;60790;-38
2023/10/10 16:07:07;;;;;;;12.40;6.90;;;;;;;;;;103902;1286;60810;-38
2023/10/10 16:09:32;;;;;;;9.30;7.10;;;;;;;;;;103690;1286;60959;-38
2023/10/10 16:11:58;;;;;;;8.80;7.20;;;;;;;;;;103746;1287;60840;-39
2023/10/10 16:14:23;;;;;;;9.20;7.40;;;;;;;;;;103734;1286;60956;-39
2023/10/10 16:16:48;;;;;;;;;;;;;;;;;;103808;1282;60862;-39
2023/10/10 16:19:14;;;;;;;8.80;6.70;;;;;;;;;;103691;1286;60861;-39
2023/10/10 16:21:40;;;;;;;9.10;7.00;;;;;;;;;;103713;1286;60881;-38
2023/10/10 16:24:07;;;;;;;10.80;7.60;;;;;;;;;;103771;1286;60835;-39
2023/10/10 16:26:32;;;;;;;9.40;7.60;;;;;;;;;;103793;1282;60868;-39
2023/10/10 16:28:57;;;;;;;10.60;7.00;;;;;;;;;;103733;1282;60942;-39
2023/10/10 16:31:29;;;;;;;9.50;7.10;;;;;;;;;;103731;1283;60902;-38
2023/10/10 16:33:54;;;;;;;8.20;6.90;;;;;;;;;;103728;1282;60828;-38
2023/10/10 16:36:19;;;;;;;9.20;7.50;;;;;;;;;;103680;1287;60862;-38
2023/10/10 16:38:45;;;;;;;9.50;7.10;;;;;;;;;;103757;1286;60854;-39
2023/10/10 16:41:10;;;;;;;8.40;7.00;;;;;;;;;;103833;1282;60881;-38
2023/10/10 16:43:37;;;;;;;8.60;7.10;;;;;;;;;;103870;1285;61190;-38
2023/10/10 16:46:05;;;;;;;10.30;7.70;;;;;;;;;;103792;1284;60799;-38
2023/10/10 16:48:31;;;;;;;10.10;7.60;;;;;;;;;;103958;1287;60792;-39
2023/10/10 16:50:56;;;;;;;10.10;7.50;;;;;;;;;;103857;1285;60876;-38
2023/10/10 16:53:22;;;;;;;9.60;7.50;;;;;;;;;;103838;1285;61128;-38
2023/10/10 16:55:47;;;;;;;;;;;;;;;;;;103739;1283;60956;-39
2023/10/10 16:58:15;;;;;;;9.90;7.30;;;;;;;;;;103722;1288;60777;-39
2023/10/10 17:00:41;;;;;;;10.70;7.70;;;;;;;;;;103825;1284;61026;-38
2023/10/10 17:03:07;;;;;;;8.40;7.20;;;;;;;;;;103805;1285;61516;-38
2023/10/10 17:05:36;;;;;;;9.50;7.70;;;;;;;;;;103609;1282;60855;-49
2023/10/10 17:08:02;;;;;;;9.60;7.50;;;;;;;;;;103826;1282;61271;-48
2023/10/10 17:10:29;;;;;;;10.70;7.50;;;;;;;;;;103725;1283;60779;-48
2023/10/10 17:12:56;;;;;;;9.20;7.30;;;;;;;;;;103702;1286;60816;-49
2023/10/10 17:15:21;;;;;;;10.20;7.80;;;;;;;;;;103824;1286;60896;-47
2023/10/10 17:17:46;;;;;;;10.60;7.70;;;;;;;;;;103697;1286;60818;-38
2023/10/10 17:20:18;;;;;;;10.50;8.40;;;;;;;;;;103781;1282;60898;-38
2023/10/10 17:22:48;;;;;;;8.90;8.00;;;;;;;;;;103640;1283;61165;-38
2023/10/10 17:25:13;;;;;;;10.30;7.90;;;;;;;;;;103786;1285;60699;-49
2023/10/10 17:27:40;;;;;;;9.50;8.00;;;;;;;;;;103629;1285;60946;-48
2023/10/10 17:30:08;;;;;;;10.40;8.20;;;;;;;;;;103924;1286;60826;-48
2023/10/10 17:32:34;;;;;;;9.30;7.90;;;;;;;;;;103964;1282;60781;-48
2023/10/10 17:35:02;;;;;;;9.90;7.70;;;;;;;;;;104326;1286;60764;-50
2023/10/10 17:37:31;;;;;;;9.00;7.40;;;;;;;;;;103903;1286;61005;-47
2023/10/10 17:39:57;;;;;;;9.90;8.10;;;;;;;;;;103931;1283;60885;-47
2023/10/10 17:42:26;;;;;;;10.60;8.40;;;;;;;;;;103793;1284;60884;-48
2023/10/10 17:44:51;;;;;;;10.90;8.00;;;;;;;;;;103815;1286;60819;-48
2023/10/10 17:47:17;;;;;;;10.90;8.00;;;;;;;;;;103766;1282;60890;-48
2023/10/10 17:49:42;;;;;;;9.90;8.10;;;;;;;;;;103813;1283;60906;-48
2023/10/10 17:52:07;;;;;;;10.90;8.70;;;;;;;;;;103750;1282;60795;-47
2023/10/10 17:54:33;;;;;;;12.30;8.40;;;;;;;;;;103772;1282;60994;-48
2023/10/10 17:56:58;;;;;;;9.60;8.30;;;;;;;;;;103589;1284;60895;-47
2023/10/10 17:59:24;;;;;;;10.40;8.30;;;;;;;;;;103764;1282;60879;-48
2023/10/10 18:01:52;;;;;;;9.80;7.90;;;;;;;;;;103737;1288;61628;-48
2023/10/10 18:04:17;;;;;;;12.40;8.60;;;;;;;;;;103815;1281;61630;-48
2023/10/10 18:06:42;;;;;;;10.70;8.40;;;;;;;;;;103741;1282;61625;-47
2023/10/10 18:09:08;;;;;;;11.10;8.30;;;;;;;;;;103613;1282;61772;-51
2023/10/10 18:11:34;;;;;;;9.30;8.00;;;;;;;;;;103784;1286;61652;-48
2023/10/10 18:14:02;;;;;;;10.60;8.80;;;;;;;;;;103682;1282;61820;-47
2023/10/10 18:16:27;;;;;;;11.70;8.30;;;;;;;;;;103853;1283;61640;-48
2023/10/10 18:18:53;;;;;;;10.90;8.80;;;;;;;;;;103760;1283;62120;-48
2023/10/10 18:21:19;;;;;;;10.70;8.30;;;;;;;;;;103775;1282;61629;-48
2023/10/10 18:23:45;;;;;;;11.30;8.40;;;;;;;;;;103753;1286;61786;-49
2023/10/10 18:26:12;;;;;;;11.00;8.10;;;;;;;;;;103617;1285;61572;-47
2023/10/10 18:28:39;;;;;;;10.40;8.10;;;;;;;;;;103642;1282;61678;-50
2023/10/10 18:31:11;;;;;;;11.20;8.50;;;;;;;;;;104036;1283;61901;-48
2023/10/10 18:33:36;;;;;;;11.40;8.60;;;;;;;;;;103773;1282;61609;-48
2023/10/10 18:36:04;;;;;;;9.90;8.60;;;;;;;;;;103758;1282;61758;-51
2023/10/10 18:38:29;;;;;;;9.90;7.90;;;;;;;;;;103800;1282;61702;-51
2023/10/10 18:40:58;;;;;;;9.90;8.30;;;;;;;;;;104017;1288;61712;-48
2023/10/10 18:43:23;;;;;;;10.50;8.20;;;;;;;;;;103740;1286;61769;-49
2023/10/10 18:45:48;;;;;;;11.10;8.20;;;;;;;;;;103813;1283;61722;-48
2023/10/10 18:48:14;;;;;;;11.10;8.10;;;;;;;;;;103681;1282;61703;-52
2023/10/10 18:50:39;;;;;;;10.10;7.80;;;;;;;;;;103716;1286;61713;-49
2023/10/10 18:53:05;;;;;;;11.10;8.50;;;;;;;;;;103710;1283;61563;-50
2023/10/10 18:55:30;;;;;;;11.00;8.50;;;;;;;;;;103754;1282;61876;-49
2023/10/10 18:58:00;;;;;;;10.50;8.40;;;;;;;;;;103859;1282;62106;-48
2023/10/10 19:00:26;;;;;;;9.80;8.00;;;;;;;;;;103817;1285;62032;-48
2023/10/10 19:02:51;;;;;;;11.30;8.40;;;;;;;;;;103657;1286;61599;-48
2023/10/10 19:05:16;;;;;;;10.80;8.60;;;;;;;;;;103694;1286;61720;-50
2023/10/10 19:07:45;;;;;;;9.10;7.80;;;;;;;;;;103655;1282;61640;-48
2023/10/10 19:10:14;;;;;;;10.00;8.10;;;;;;;;;;103571;1285;62354;-48
2023/10/10 19:12:43;;;;;;;10.90;8.40;;;;;;;;;;103691;1282;61608;-50
2023/10/10 19:15:12;;;;;;;11.00;7.90;;;;;;;;;;103903;1282;62108;-49
2023/10/10 19:17:39;;;;;;;10.10;8.50;;;;;;;;;;103845;1282;61467;-51
2023/10/10 19:20:06;;;;;;;10.90;8.30;;;;;;;;;;103733;1282;61581;-48
2023/10/10 19:22:34;;;;;;;9.20;7.90;;;;;;;;;;104174;1285;61665;-48
2023/10/10 19:24:59;;;;;;;9.30;8.00;;;;;;;;;;104215;1281;61683;-49
2023/10/10 19:27:26;;;;;;;9.90;7.80;;;;;;;;;;103805;1282;61714;-47
2023/10/10 19:29:51;;;;;;;10.40;8.20;;;;;;;;;;103773;1282;61599;-50
2023/10/10 19:32:18;;;;;;;9.40;7.70;;;;;;;;;;103758;1282;61892;-50
2023/10/10 19:34:43;;;;;;;10.70;8.30;;;;;;;;;;103779;1282;61714;-51
2023/10/10 19:37:09;;;;;;;10.40;7.90;;;;;;;;;;103755;1286;61685;-51
2023/10/10 19:39:34;;;;;;;11.30;8.50;;;;;;;;;;103709;1282;61702;-51
2023/10/10 19:42:03;;;;;;;9.50;7.70;;;;;;;;;;103726;1282;61718;-48
2023/10/10 19:44:28;;;;;;;11.30;7.70;;;;;;;;;;103837;1284;61541;-49
2023/10/10 19:46:54;;;;;;;10.90;8.30;;;;;;;;;;103726;1287;61659;-48
2023/10/10 19:49:19;;;;;;;9.20;8.20;;;;;;;;;;103387;1288;61721;-48
2023/10/10 19:51:44;;;;;;;10.10;8.20;;;;;;;;;;103747;1286;61686;-49
2023/10/10 19:54:11;;;;;;;10.40;8.40;;;;;;;;;;103760;1286;61734;-49
2023/10/10 19:56:37;;;;;;;8.90;8.00;;;;;;;;;;103897;1282;61535;-49
2023/10/10 19:59:02;;;;;;;9.80;7.80;;;;;;;;;;103812;1286;61685;-53
2023/10/10 20:01:27;;;;;;;10.70;8.50;;;;;;;;;;103711;1286;61692;-48
2023/10/10 20:03:55;;;;;;;11.00;8.10;;;;;;;;;;103666;1284;61626;-48
2023/10/10 20:06:20;;;;;;;9.00;7.70;;;;;;;;;;103720;1286;61707;-47
2023/10/10 20:08:47;;;;;;;9.40;7.70;;;;;;;;;;103701;1282;61680;-48
2023/10/10 20:11:13;;;;;;;8.60;7.70;;;;;;;;;;104081;1282;62380;-50
2023/10/10 20:13:41;;;;;;;10.20;8.00;;;;;;;;;;103656;1282;61705;-48
2023/10/10 20:16:14;;;;;;;9.70;7.80;;;;;;;;;;103799;1282;61727;-48
2023/10/10 20:18:43;;;;;;;11.20;8.00;;;;;;;;;;103768;1286;62500;-49
2023/10/10 20:21:09;;;;;;;9.60;8.00;;;;;;;;;;104129;1282;61655;-49
2023/10/10 20:23:38;;;;;;;9.60;7.80;;;;;;;;;;103723;1282;61597;-51
2023/10/10 20:26:08;;;;;;;10.10;7.70;;;;;;;;;;104079;1282;61606;-49
2023/10/10 20:28:33;;;;;;;9.00;7.40;;;;;;;;;;103770;1287;61611;-49
2023/10/10 20:30:58;;;;;;;8.20;7.30;;;;;;;;;;103661;1285;61759;-51
2023/10/10 20:33:24;;;;;;;8.50;7.30;;;;;;;;;;103704;1282;61613;-48
2023/10/10 20:35:50;;;;;;;;;;;;;;;;;;103789;1282;61816;-48
2023/10/10 20:38:18;;;;;;;9.10;7.30;;;;;;;;;;103677;1288;61679;-49
2023/10/10 20:40:44;;;;;;;10.00;7.80;;;;;;;;;;103746;1286;62990;-47
2023/10/10 20:43:10;;;;;;;8.70;7.30;;;;;;;;;;103711;1283;61588;-48
2023/10/10 20:45:35;;;;;;;8.30;7.40;;;;;;;;;;103778;1285;61734;-48
2023/10/10 20:48:02;;;;;;;8.40;6.90;;;;;;;;;;103661;1284;61773;-48
2023/10/10 20:50:28;;;;;;;8.80;7.30;;;;;;;;;;103943;1283;61512;-50
2023/10/10 20:52:55;;;;;;;7.70;6.70;;;;;;;;;;103781;1286;61683;-48
2023/10/10 20:55:21;;;;;;;8.70;7.20;;;;;;;;;;103678;1282;61630;-49
2023/10/10 20:57:46;;;;;;;8.70;7.60;;;;;;;;;;103750;1282;61685;-50
2023/10/10 21:00:21;;;;;;;8.80;7.90;;;;;;;;;;103693;1286;61706;-48
2023/10/10 21:02:47;;;;;;;8.30;7.40;;;;;;;;;;103712;1282;61594;-48
2023/10/10 21:05:13;;;;;;;;;;;;;;;;;;103704;1283;61799;-48
2023/10/10 21:07:38;;;;;;;9.30;7.10;;;;;;;;;;103608;1284;61624;-48
2023/10/10 21:10:05;;;;;;;9.10;7.30;;;;;;;;;;103706;1282;61725;-48
2023/10/10 21:12:30;;;;;;;8.40;7.30;;;;;;;;;;103698;1282;61685;-49
2023/10/10 21:14:55;;;;;;;9.20;7.10;;;;;;;;;;103738;1285;61707;-51
2023/10/10 21:17:21;;;;;;;9.00;7.10;;;;;;;;;;103791;1286;61695;-49
2023/10/10 21:19:47;;;;;;;7.40;6.70;;;;;;;;;;103615;1284;61599;-47
2023/10/10 21:22:13;;;;;;;8.20;7.10;;;;;;;;;;103746;1282;61641;-50
2023/10/10 21:24:38;;;;;;;;;;;;;;;;;;103876;1283;61657;-48
2023/10/10 21:27:04;;;;;;;7.60;6.80;;;;;;;;;;103748;1282;62099;-48
2023/10/10 21:29:30;;;;;;;9.50;6.80;;;;;;;;;;103821;1282;61565;-48
2023/10/10 21:31:55;;;;;;;8.70;6.90;;;;;;;;;;103705;1282;61723;-48
2023/10/10 21:34:20;;;;;;;9.70;7.20;;;;;;;;;;103741;1282;61704;-50
2023/10/10 21:36:45;;;;;;;8.50;6.50;;;;;;;;;;103656;1282;61782;-49
2023/10/10 21:39:11;;;;;;;7.40;6.60;;;;;;;;;;103732;1282;62059;-49
2023/10/10 21:41:37;;;;;;;7.90;6.30;;;;;;;;;;103708;1282;61698;-48
2023/10/10 21:44:02;;;;;;;9.80;7.10;;;;;;;;;;103734;1282;61658;-48
2023/10/10 21:46:27;;;;;;;7.50;6.50;;;;;;;;;;103571;1282;61721;-48
2023/10/10 21:48:53;;;;;;;7.10;6.40;;;;;;;;;;103782;1282;61719;-49
2023/10/10 21:51:18;;;;;;;7.80;6.90;;;;;;;;;;103715;1286;61732;-49
2023/10/10 21:53:43;;;;;;;8.30;6.70;;;;;;;;;;103730;1284;61704;-48
2023/10/10 21:56:09;;;;;;;8.10;6.30;;;;;;;;;;103729;1282;61682;-47
2023/10/10 21:58:38;;;;;;;7.40;6.60;;;;;;;;;;103620;1281;61730;-49
2023/10/10 22:01:09;;;;;;;7.00;6.30;;;;;;;;;;104001;1281;61605;-49
2023/10/10 22:03:37;;;;;;;7.90;6.20;;;;;;;;;;103875;1282;61650;-49
2023/10/10 22:06:02;;;;;;;7.10;6.40;;;;;;;;;;104439;1283;61682;-49
2023/10/10 22:08:27;;;;;;;7.20;6.40;;;;;;;;;;103712;1287;61721;-48
2023/10/10 22:10:54;;;;;;;7.10;6.10;;;;;;;;;;103741;1282;61806;-49
2023/10/10 22:13:21;;;;;;;8.10;6.10;;;;;;;;;;103770;1282;61652;-49
2023/10/10 22:15:47;;;;;;;7.30;6.50;;;;;;;;;;103747;1282;61740;-49
2023/10/10 22:18:12;;;;;;;6.90;5.80;;;;;;;;;;103696;1283;61653;-50
2023/10/10 22:20:38;;;;;;;6.50;5.70;;;;;;;;;;103758;1285;61725;-48
2023/10/10 22:23:06;;;;;;;7.10;6.30;;;;;;;;;;103638;1282;61692;-48
2023/10/10 22:25:33;;;;;;;6.20;5.60;;;;;;;;;;103780;1282;61586;-38
2023/10/10 22:28:00;;;;;;;6.80;6.00;;;;;;;;;;103833;1281;61629;-38
2023/10/10 22:30:25;;;;;;;6.30;5.30;;;;;;;;;;103777;1283;61720;-37
2023/10/10 22:32:51;;;;;;;6.70;6.00;;;;;;;;;;103581;1283;62287;-39
2023/10/10 22:35:18;;;;;;;6.80;6.10;;;;;;;;;;103851;1284;61614;-39
2023/10/10 22:37:44;;;;;;;6.40;5.60;;;;;;;;;;103739;1284;61788;-48
2023/10/10 22:40:17;;;;;;;7.00;6.00;;;;;;;;;;103652;1284;61741;-49
2023/10/10 22:42:45;;;;;;;6.70;6.00;;;;;;;;;;103686;1287;62015;-48
2023/10/10 22:45:11;;;;;;;5.80;5.20;;;;;;;;;;103809;1283;61688;-49
2023/10/10 22:47:39;;;;;;;5.90;5.30;;;;;;;;;;103694;1285;61705;-48
2023/10/10 22:50:07;;;;;;;5.90;5.30;;;;;;;;;;103796;1287;61704;-47
2023/10/10 22:52:35;;;;;;;6.40;5.40;;;;;;;;;;103731;1283;61614;-48
2023/10/10 22:55:06;;;;;;;6.90;5.00;;;;;;;;;;103951;1282;61664;-38
2023/10/10 22:57:32;;;;;;;5.80;5.10;;;;;;;;;;103888;1283;62022;-38
2023/10/10 22:59:58;;;;;;;5.40;4.90;;;;;;;;;;103798;1282;61707;-38
2023/10/10 23:02:24;;;;;;;6.40;5.50;;;;;;;;;;103663;1285;61696;-38
2023/10/10 23:04:49;;;;;;;6.20;5.30;;;;;;;;;;103677;1285;61752;-39
2023/10/10 23:07:14;;;;;;;5.30;4.80;;;;;;;;;;103615;1283;61716;-38
2023/10/10 23:09:41;;;;;;;;;;;;;;;;;;103745;1282;61677;-38
2023/10/10 23:12:08;;;;;;;6.50;5.10;;;;;;;;;;103677;1284;62210;-48
2023/10/10 23:14:34;;;;;;;6.00;5.30;;;;;;;;;;103705;1282;61524;-49
2023/10/10 23:16:59;;;;;;;5.90;4.90;;;;;;;;;;103682;1284;61676;-52
2023/10/10 23:19:24;;;;;;;6.90;4.80;;;;;;;;;;103703;1284;61804;-49
2023/10/10 23:21:50;;;;;;;5.80;5.20;;;;;;;;;;103554;1284;61586;-38
2023/10/10 23:24:16;;;;;;;5.50;4.90;;;;;;;;;;103604;1284;61710;-38
2023/10/10 23:26:42;;;;;;;6.50;5.10;;;;;;;;;;103667;1285;61718;-38
2023/10/10 23:29:08;;;;;;;6.40;5.40;;;;;;;;;;103647;1283;61635;-38
2023/10/10 23:31:33;;;;;;;5.30;4.40;;;;;;;;;;103637;1282;61712;-39
2023/10/10 23:33:59;;;;;;;5.30;4.40;;;;;;;;;;103767;1282;61754;-38
2023/10/10 23:36:24;;;;;;;5.60;4.60;;;;;;;;;;103809;1282;61719;-50
2023/10/10 23:38:49;;;;;;;5.80;4.80;;;;;;;;;;103718;1282;61664;-49
2023/10/10 23:41:15;;;;;;;5.80;4.60;;;;;;;;;;103727;1285;61735;-49
2023/10/10 23:43:43;;;;;;;4.90;4.30;;;;;;;;;;103617;1282;61634;-49
2023/10/10 23:46:10;;;;;;;5.10;4.30;;;;;;;;;;103743;1282;61582;-49
2023/10/10 23:48:36;;;;;;;5.10;4.50;;;;;;;;;;103581;1282;61601;-51
2023/10/10 23:51:06;;;;;;;5.70;4.60;;;;;;;;;;103565;1283;61782;-48
2023/10/10 23:53:36;;;;;;;4.80;4.20;;;;;;;;;;103697;1283;61623;-48
2023/10/10 23:56:02;;;;;;;5.10;4.40;;;;;;;;;;103576;1283;60625;-50
2023/10/10 23:58:28;;;;;;;;;;;;;;;;;;103636;1285;61729;-48
